Time;durP1;ratioP1;P1;durP2;ratioP2;P2;SDS_P1;SDS_P2;PMS_P1;PMS_P2;Temp;Humidity;BMP_temperature;BMP_pressure;BME280_temperature;BME280_humidity;BME280_pressure;Samples;Min_cycle;Max_cycle;Signal;HPM_P1;HPM_P2
2022/11/13 00:02:22;;;;;;;72.38;53.97;;;;;;;8.25;93.82;102336.72;4944817;28;20047;-75
2022/11/13 00:04:48;;;;;;;70.10;53.88;;;;;;;7.51;93.61;102199.50;4967577;28;20023;-74
2022/11/13 00:07:14;;;;;;;77.25;54.22;;;;;;;7.60;94.71;102224.28;4949975;28;20042;-73
2022/11/13 00:09:40;;;;;;;72.30;51.97;;;;;;;7.70;94.07;102261.25;4966769;28;20541;-74
2022/11/13 00:12:05;;;;;;;65.03;49.47;;;;;;;8.30;92.83;102352.59;4949397;28;20043;-73
2022/11/13 00:14:31;;;;;;;59.53;48.83;;;;;;;8.39;93.51;102347.72;4963493;28;20070;-73
2022/11/13 00:16:56;;;;;;;61.15;46.83;;;;;;;7.53;93.70;102197.84;4964861;28;20144;-73
2022/11/13 00:19:21;;;;;;;64.88;46.65;;;;;;;7.98;96.57;102310.31;4960856;28;20085;-74
2022/11/13 00:21:47;;;;;;;63.33;49.20;;;;;;;8.04;97.79;102335.00;4965900;28;20097;-73
2022/11/13 00:24:12;;;;;;;67.68;49.47;;;;;;;7.68;98.83;102304.69;4967610;28;20047;-75
2022/11/13 00:26:38;;;;;;;63.03;49.28;;;;;;;7.74;98.43;102321.53;4968177;28;20047;-75
2022/11/13 00:29:04;;;;;;;61.55;47.17;;;;;;;7.14;97.21;102221.44;4968431;28;20039;-73
2022/11/13 00:31:29;;;;;;;63.50;49.55;;;;;;;7.43;97.98;102259.25;4965212;28;20098;-73
2022/11/13 00:33:56;;;;;;;62.25;47.53;;;;;;;6.94;98.82;102195.38;4967476;28;20126;-73
2022/11/13 00:36:26;;;;;;;62.85;47.38;;;;;;;7.71;99.52;102334.47;4966758;28;20602;-73
2022/11/13 00:38:53;;;;;;;63.30;47.65;;;;;;;7.42;97.91;102329.69;4966224;28;20055;-74
2022/11/13 00:41:19;;;;;;;64.97;47.47;;;;;;;7.38;97.43;102313.91;4948488;29;20063;-73
2022/11/13 00:43:45;;;;;;;65.95;52.53;;;;;;;7.26;98.06;102300.31;4958209;28;20069;-74
2022/11/13 00:46:10;;;;;;;75.00;53.17;;;;;;;7.33;97.43;102307.59;4968343;28;20047;-73
2022/11/13 00:48:37;;;;;;;69.13;49.17;;;;;;;6.81;97.36;102218.25;4971958;28;20410;-74
2022/11/13 00:51:03;;;;;;;64.55;49.05;;;;;;;7.33;98.89;102323.28;4971732;28;20055;-74
2022/11/13 00:53:28;;;;;;;73.80;48.63;;;;;;;7.11;100.00;102302.25;4971670;28;20549;-74
2022/11/13 00:55:54;;;;;;;71.43;47.95;;;;;;;6.38;100.00;102188.53;4971489;28;20070;-73
2022/11/13 00:58:20;;;;;;;75.13;55.13;;;;;;;6.50;100.00;102203.84;4954419;28;20097;-74
2022/11/13 01:00:46;;;;;;;66.63;50.35;;;;;;;7.22;100.00;102334.06;4970071;28;20054;-74
2022/11/13 01:03:13;;;;;;;75.85;52.80;;;;;;;6.11;100.00;102183.84;4970487;28;20070;-73
2022/11/13 01:05:40;;;;;;;67.38;48.70;;;;;;;6.89;100.00;102326.50;4971257;28;20063;-75
2022/11/13 01:08:06;;;;;;;74.50;52.40;;;;;;;6.08;100.00;102180.19;4971439;28;20554;-75
2022/11/13 01:10:34;;;;;;;66.35;50.33;;;;;;;6.70;100.00;102283.91;4970763;28;20127;-76
2022/11/13 01:12:59;;;;;;;71.05;54.08;;;;;;;6.89;100.00;102321.28;4970213;28;20504;-73
2022/11/13 01:15:25;;;;;;;72.53;53.78;;;;;;;6.98;100.00;102319.09;4968800;28;20047;-73
2022/11/13 01:17:53;;;;;;;67.90;50.25;;;;;;;6.94;100.00;102327.59;4951677;28;20387;-75
2022/11/13 01:20:20;;;;;;;72.47;52.17;;;;;;;6.93;100.00;102317.97;4952561;28;20503;-73
2022/11/13 01:22:46;;;;;;;72.32;51.78;;;;;;;6.74;100.00;102326.66;4970902;28;20039;-73
2022/11/13 01:25:11;;;;;;;77.82;55.53;;;;;;;6.80;100.00;102305.19;4970230;28;20908;-75
2022/11/13 01:27:37;;;;;;;68.05;52.90;;;;;;;5.94;100.00;102163.91;4970600;28;20795;-73
2022/11/13 01:30:04;;;;;;;71.13;52.22;;;;;;;6.53;100.00;102295.25;4968713;28;20186;-74
2022/11/13 01:32:29;;;;;;;72.28;49.88;;;;;;;6.71;100.00;102324.81;4971308;28;20058;-74
2022/11/13 01:34:55;;;;;;;51.60;31.70;;;;;;;6.47;100.00;102289.75;4970504;28;20134;-74
2022/11/13 01:37:20;;;;;;;66.00;50.25;;;;;;;6.67;100.00;102330.72;4971096;28;20495;-73
2022/11/13 01:39:46;;;;;;;56.22;34.92;;;;;;;6.69;100.00;102362.06;4971674;28;20499;-75
2022/11/13 01:42:11;;;;;;;63.60;49.58;;;;;;;6.61;100.00;102326.94;4972826;28;20566;-75
2022/11/13 01:44:52;;;;;;;82.70;53.28;;;;;;;6.17;100.00;102213.59;4970843;28;20506;-75
2022/11/13 01:47:20;;;;;;;48.63;33.50;;;;;;;6.75;100.00;102326.75;4969466;28;20776;-76
2022/11/13 01:49:46;;;;;;;81.50;55.72;;;;;;;5.82;100.00;102187.63;4970769;28;20165;-73
2022/11/13 01:52:14;;;;;;;74.18;55.30;;;;;;;6.76;100.00;102335.44;4971055;28;20041;-73
2022/11/13 01:54:47;;;;;;;75.07;54.55;;;;;;;5.83;100.00;102173.78;4969518;28;20078;-73
2022/11/13 01:57:14;;;;;;;48.22;32.25;;;;;;;6.65;100.00;102329.75;4969392;28;20178;-74
2022/11/13 01:59:46;;;;;;;49.30;35.20;;;;;;;6.74;100.00;102327.56;4970465;28;20130;-74
2022/11/13 02:02:12;;;;;;;73.57;54.58;;;;;;;6.25;100.00;102248.72;4970548;28;20049;-74
2022/11/13 02:04:37;;;;;;;55.08;34.45;;;;;;;6.63;100.00;102323.56;4970563;28;20034;-73
2022/11/13 02:07:24;;;;;;;67.38;52.10;;;;;;;6.71;100.00;102327.41;4970632;28;20042;-73
2022/11/13 02:09:53;;;;;;;67.85;52.00;;;;;;;6.62;100.00;102332.19;4969484;28;20055;-75
2022/11/13 02:12:50;;;;;;;71.15;51.85;;;;;;;6.74;99.06;102326.66;4951096;29;20197;-75
2022/11/13 02:15:19;;;;;;;48.92;30.17;;;;;;;6.77;99.57;102337.25;4938824;29;20039;-75
2022/11/13 02:17:51;;;;;;;52.40;32.53;;;;;;;5.89;99.67;102174.06;4949100;28;20066;-75
2022/11/13 02:20:39;;;;;;;72.63;51.30;;;;;;;6.50;99.54;102271.63;4933892;29;20650;-75
2022/11/13 02:23:23;;;;;;;48.13;30.90;;;;;;;6.87;100.00;102318.59;4954408;28;20062;-74
2022/11/13 02:25:52;;;;;;;49.05;34.13;;;;;;;5.86;99.96;102173.94;4969560;28;20034;-74
2022/11/13 02:28:17;;;;;;;57.58;47.28;;;;;;;6.57;100.00;102304.13;4970781;28;20093;-74
2022/11/13 02:30:43;;;;;;;76.97;54.13;;;;;;;5.76;100.00;102170.78;4968753;28;20043;-74
2022/11/13 02:33:28;;;;;;;71.53;53.65;;;;;;;6.60;100.00;102327.72;4970054;28;20074;-74
2022/11/13 02:35:54;;;;;;;73.45;55.17;;;;;;;5.71;99.87;102220.97;4969338;28;20055;-73
2022/11/13 02:38:20;;;;;;;72.90;53.67;;;;;;;6.42;99.62;102315.63;4950431;28;20053;-73
2022/11/13 02:40:45;;;;;;;53.05;32.53;;;;;;;6.37;99.31;102298.88;4969117;28;20062;-72
2022/11/13 02:43:10;;;;;;;51.38;33.38;;;;;;;6.30;98.89;102273.34;4969862;28;20046;-74
2022/11/13 02:45:37;;;;;;;57.03;34.60;;;;;;;6.23;98.25;102268.66;4969787;28;20050;-72
2022/11/13 02:48:04;;;;;;;71.03;52.22;;;;;;;5.68;98.25;102168.72;4969576;28;20133;-73
2022/11/13 02:50:30;;;;;;;71.10;54.22;;;;;;;6.47;97.01;102295.88;4969378;28;20045;-73
2022/11/13 02:52:55;;;;;;;72.13;52.38;;;;;;;5.80;98.13;102201.38;4968682;28;20047;-73
2022/11/13 02:55:21;;;;;;;53.13;35.65;;;;;;;6.10;98.84;102268.03;4952230;28;20071;-74
2022/11/13 02:57:46;;;;;;;67.35;51.00;;;;;;;6.49;98.73;102317.69;4969514;28;20057;-74
2022/11/13 03:00:15;;;;;;;64.10;52.97;;;;;;;5.55;98.68;102168.97;4969415;28;20046;-73
2022/11/13 03:02:41;;;;;;;59.90;35.58;;;;;;;5.47;98.33;102170.28;4969428;28;20605;-74
2022/11/13 03:05:10;;;;;;;53.95;35.33;;;;;;;6.24;99.33;102320.84;4969420;28;20133;-74
2022/11/13 03:07:35;;;;;;;72.53;52.88;;;;;;;6.07;99.28;102274.84;4968605;28;20078;-73
2022/11/13 03:10:02;;;;;;;60.30;33.72;;;;;;;6.23;99.63;102284.28;4969641;28;20043;-73
2022/11/13 03:12:28;;;;;;;70.85;51.97;;;;;;;6.23;98.68;102284.28;4969368;28;20054;-74
2022/11/13 03:14:53;;;;;;;70.32;50.13;;;;;;;6.46;98.05;102309.75;4969032;28;20050;-74
2022/11/13 03:17:19;;;;;;;67.30;50.58;;;;;;;5.56;96.92;102160.31;4968147;28;20047;-74
2022/11/13 03:19:44;;;;;;;46.30;32.65;;;;;;;6.07;98.50;102256.59;4951766;28;20650;-73
2022/11/13 03:22:10;;;;;;;49.45;29.70;;;;;;;5.42;99.75;102124.91;4968924;28;20498;-73
2022/11/13 03:24:35;;;;;;;60.92;34.08;;;;;;;5.39;100.00;102136.06;4969053;28;20509;-73
2022/11/13 03:27:01;;;;;;;40.80;31.48;;;;;;;5.83;99.84;102215.47;4967079;28;20427;-73
2022/11/13 03:29:26;;;;;;;74.00;51.30;;;;;;;6.01;100.00;102241.53;4969019;28;20588;-72
2022/11/13 03:31:52;;;;;;;67.47;50.20;;;;;;;6.22;100.00;102300.72;4965319;28;20043;-73
2022/11/13 03:34:17;;;;;;;53.17;31.85;;;;;;;6.04;100.00;102267.75;4969007;28;20078;-75
2022/11/13 03:36:43;;;;;;;50.70;31.95;;;;;;;6.11;99.60;102306.31;4967910;28;20042;-73
2022/11/13 03:39:08;;;;;;;52.70;33.55;;;;;;;5.29;100.00;102134.75;4968705;28;20058;-75
2022/11/13 03:41:34;;;;;;;41.97;28.83;;;;;;;6.26;100.00;102300.94;4968759;28;20210;-74
2022/11/13 03:43:59;;;;;;;54.97;45.30;;;;;;;5.55;98.86;102184.59;4967694;28;20499;-73
2022/11/13 03:46:24;;;;;;;57.53;40.97;;;;;;;6.07;99.02;102291.34;4969426;28;20035;-74
2022/11/13 03:48:50;;;;;;;48.00;26.35;;;;;;;5.98;99.54;102263.97;4968710;28;20054;-73
2022/11/13 03:51:15;;;;;;;42.40;24.02;;;;;;;5.91;99.77;102275.75;4968720;28;20110;-73
2022/11/13 03:53:41;;;;;;;43.63;29.10;;;;;;;6.01;99.72;102280.63;4968852;28;20455;-73
2022/11/13 03:56:07;;;;;;;37.78;25.42;;;;;;;6.07;98.46;102293.06;4951029;28;20054;-73
2022/11/13 03:58:32;;;;;;;40.63;26.70;;;;;;;6.09;98.69;102275.81;4968014;28;20046;-73
2022/11/13 04:00:58;;;;;;;37.78;25.08;;;;;;;6.15;98.76;102281.28;4967953;28;20058;-74
2022/11/13 04:03:23;;;;;;;56.20;36.60;;;;;;;6.23;99.75;102269.53;4968353;28;20069;-74
2022/11/13 04:05:49;;;;;;;52.72;39.53;;;;;;;6.25;100.00;102277.41;4968382;28;20505;-73
2022/11/13 04:08:16;;;;;;;38.97;24.05;;;;;;;5.32;100.00;102114.88;4968445;28;20082;-74
2022/11/13 04:10:42;;;;;;;39.63;26.15;;;;;;;5.30;100.00;102112.19;4968422;28;20041;-75
2022/11/13 04:13:07;;;;;;;39.47;27.75;;;;;;;5.95;100.00;102250.75;4967623;28;20042;-74
2022/11/13 04:15:33;;;;;;;35.28;25.95;;;;;;;5.33;99.79;102120.16;4968353;28;20050;-74
2022/11/13 04:17:59;;;;;;;36.15;26.02;;;;;;;5.26;100.00;102113.75;4967994;28;20051;-74
2022/11/13 04:20:26;;;;;;;33.20;22.90;;;;;;;5.97;99.26;102246.53;4967723;28;20054;-74
2022/11/13 04:22:56;;;;;;;54.40;40.50;;;;;;;5.27;99.76;102131.16;4967816;28;20051;-74
2022/11/13 04:25:23;;;;;;;37.97;26.40;;;;;;;6.01;99.74;102270.19;4968972;28;20034;-72
2022/11/13 04:27:50;;;;;;;32.85;23.98;;;;;;;5.86;98.73;102239.06;4966692;28;20047;-72
2022/11/13 04:30:16;;;;;;;35.92;24.63;;;;;;;5.95;98.67;102259.50;4966250;28;20443;-73
2022/11/13 04:32:41;;;;;;;37.30;24.65;;;;;;;5.22;98.86;102130.06;4967621;28;20130;-73
2022/11/13 04:35:07;;;;;;;60.88;39.80;;;;;;;5.90;100.00;102241.00;4976369;28;20517;-74
2022/11/13 04:37:33;;;;;;;38.28;26.05;;;;;;;5.95;100.00;102233.44;4967747;28;20038;-75
2022/11/13 04:39:58;;;;;;;32.70;23.85;;;;;;;5.62;100.00;102165.84;4968878;28;20600;-75
2022/11/13 04:45:08;;;;;;;34.13;23.88;;;;;;;6.02;100.00;102276.31;4967360;28;20086;-74
2022/11/13 04:47:34;;;;;;;52.72;25.88;;;;;;;5.04;100.00;102122.22;4967539;28;20149;-75
2022/11/13 04:50:00;;;;;;;44.83;25.95;;;;;;;5.89;100.00;102269.56;4981936;28;20138;-75
2022/11/13 04:52:27;;;;;;;42.78;27.45;;;;;;;5.74;100.00;102276.66;4966992;28;20066;-73
2022/11/13 04:54:53;;;;;;;35.67;24.70;;;;;;;5.27;100.00;102243.06;4966118;28;20117;-75
2022/11/13 04:57:18;;;;;;;56.92;38.97;;;;;;;4.65;100.00;102123.69;4967445;28;20055;-73
2022/11/13 05:00:14;;;;;;;35.00;23.42;;;;;;;4.95;100.00;102186.78;4966807;28;20042;-75
2022/11/13 05:03:10;;;;;;;40.22;26.00;;;;;;;4.53;100.00;102087.53;4956092;28;20051;-76
2022/11/13 05:05:46;;;;;;;40.15;28.05;;;;;;;3.77;100.00;101921.72;4968614;28;20062;-76
2022/11/13 05:08:38;;;;;;;41.90;28.90;;;;;;;5.80;100.00;102279.53;4961263;28;20089;-76
2022/11/13 05:11:06;;;;;;;39.63;25.67;;;;;;;4.37;100.00;102031.28;4968960;28;20145;-74
2022/11/13 05:13:40;;;;;;;35.20;24.42;;;;;;;3.58;100.00;101883.53;4948939;28;21753;-75
2022/11/13 05:16:27;;;;;;;41.35;24.40;;;;;;;4.28;100.00;102001.34;4956605;28;20062;-74
2022/11/13 05:19:17;;;;;;;33.78;23.73;;;;;;;5.88;100.00;102278.22;4982400;28;20054;-75
2022/11/13 05:22:14;;;;;;;54.00;25.50;;;;;;;5.84;100.00;102274.56;4966205;28;20070;-75
2022/11/13 05:24:54;;;;;;;41.35;25.13;;;;;;;5.74;100.00;102279.25;4967276;28;20089;-75
2022/11/13 05:27:56;;;;;;;36.53;22.95;;;;;;;5.89;100.00;102278.28;4967094;28;20133;-75
2022/11/13 05:30:52;;;;;;;36.60;24.65;;;;;;;5.92;100.00;102275.84;4963065;28;20055;-76
2022/11/13 05:33:39;;;;;;;36.10;24.50;;;;;;;5.92;100.00;102272.31;4973784;28;20085;-76
2022/11/13 05:36:53;;;;;;;40.25;26.33;;;;;;;5.84;100.00;102276.28;4971683;28;20051;-74
2022/11/13 05:39:47;;;;;;;;;;;;;;;5.90;100.00;102285.28;4927979;28;20110;-74
2022/11/13 05:43:10;;;;;;;35.30;23.08;;;;;;;5.85;100.00;102285.84;4942761;28;19922;-76
2022/11/13 05:46:11;;;;;;;30.58;22.50;;;;;;;5.97;99.68;102288.22;4959193;28;20041;-76
2022/11/13 05:48:59;;;;;;;36.20;21.58;;;;;;;5.95;98.42;102288.16;4969013;28;20077;-76
2022/11/13 05:51:58;;;;;;;34.78;22.83;;;;;;;5.98;97.91;102290.00;4974967;28;20047;-76
2022/11/13 05:54:53;;;;;;;30.33;21.52;;;;;;;6.01;97.88;102298.84;4958860;28;20499;-76
2022/11/13 05:57:59;;;;;;;26.02;19.67;;;;;;;6.03;97.42;102301.56;4970998;28;20077;-76
2022/11/13 06:01:14;;;;;;;35.47;20.98;;;;;;;6.16;97.81;102303.03;4972437;28;20085;-76
2022/11/13 06:04:04;;;;;;;27.95;18.50;;;;;;;6.13;97.34;102301.16;4970981;28;20031;-76
2022/11/13 06:06:46;;;;;;;35.05;21.90;;;;;;;4.50;96.37;102012.00;4974907;28;20055;-76
2022/11/13 06:09:28;;;;;;;39.33;23.55;;;;;;;5.15;96.46;102142.66;4969665;28;20074;-75
2022/11/13 06:12:17;;;;;;;37.30;21.88;;;;;;;6.27;97.53;102304.44;4970788;28;20110;-74
2022/11/13 06:15:08;;;;;;;37.05;22.13;;;;;;;6.40;98.45;102291.19;4969743;28;20039;-75
2022/11/13 06:17:47;;;;;;;36.60;22.73;;;;;;;6.58;97.12;102306.81;4968944;28;20105;-76
2022/11/13 06:20:42;;;;;;;38.40;22.80;;;;;;;6.68;96.00;102300.31;4970497;28;20035;-74
2022/11/13 06:23:17;;;;;;;35.13;21.65;;;;;;;5.53;95.17;102102.03;4952309;28;20058;-76
2022/11/13 06:26:20;;;;;;;34.80;20.52;;;;;;;6.77;96.24;102295.50;4983452;28;20079;-75
2022/11/13 06:28:52;;;;;;;34.37;22.07;;;;;;;6.49;95.26;102230.75;4944946;28;20127;-77
2022/11/13 06:31:36;;;;;;;29.08;19.05;;;;;;;5.57;93.92;102078.81;4967199;28;20125;-75
2022/11/13 06:34:37;;;;;;;30.40;20.83;;;;;;;7.03;93.62;102283.63;4967108;28;20055;-76
2022/11/13 06:37:27;;;;;;;27.55;19.67;;;;;;;6.98;93.16;102282.53;4950267;29;20063;-75
2022/11/13 06:40:15;;;;;;;28.55;20.40;;;;;;;6.12;93.04;102149.13;4949757;29;20055;-75
2022/11/13 06:43:06;;;;;;;30.00;20.60;;;;;;;7.05;92.95;102279.38;4949715;28;20151;-75
2022/11/13 06:45:56;;;;;;;29.92;19.85;;;;;;;7.19;93.09;102290.44;4943939;29;20079;-75
2022/11/13 06:51:53;;;;;;;32.92;21.15;;;;;;;6.87;91.00;102201.16;4933569;28;20233;-76
2022/11/13 06:54:55;;;;;;;28.95;18.83;;;;;;;6.35;91.10;102094.53;4907968;29;20137;-76
2022/11/13 06:57:45;;;;;;;40.30;28.75;;;;;;;7.54;91.18;102297.19;4948497;29;20035;-75
2022/11/13 07:00:39;;;;;;;36.35;28.45;;;;;;;5.71;91.68;101952.72;4926131;28;20195;-75
2022/11/13 07:03:29;;;;;;;41.55;30.13;;;;;;;7.65;90.96;102294.13;4924608;29;20522;-75
2022/11/13 07:06:24;;;;;;;40.28;30.70;;;;;;;6.64;90.76;102111.44;4911858;28;20064;-74
2022/11/13 07:08:57;;;;;;;29.40;20.10;;;;;;;6.38;90.54;102054.69;4882292;29;20507;-76
2022/11/13 07:11:27;;;;;;;34.40;20.35;;;;;;;7.94;90.64;102292.75;4909249;28;20062;-78
2022/11/13 07:14:10;;;;;;;38.50;29.20;;;;;;;7.58;90.00;102259.91;4946450;29;20078;-75
2022/11/13 07:16:35;;;;;;;39.08;29.63;;;;;;;6.87;88.53;102091.56;4923679;29;20058;-76
2022/11/13 07:19:06;;;;;;;34.05;28.42;;;;;;;8.16;88.76;102289.28;4948748;28;20046;-76
2022/11/13 07:21:34;;;;;;;41.53;29.35;;;;;;;6.63;88.52;102021.00;4915947;29;20431;-74
2022/11/13 07:24:01;;;;;;;37.55;31.00;;;;;;;7.28;89.14;102136.78;4930085;29;20499;-75
2022/11/13 07:26:30;;;;;;;38.47;30.23;;;;;;;7.12;89.26;102064.78;4931838;29;20069;-74
2022/11/13 07:29:02;;;;;;;49.97;35.10;;;;;;;7.67;88.80;102147.06;4921114;29;20083;-75
2022/11/13 07:31:46;;;;;;;52.47;35.00;;;;;;;8.50;88.48;102288.91;4946151;29;20039;-75
2022/11/13 07:34:36;;;;;;;60.03;39.72;;;;;;;8.79;88.56;102299.59;4920123;29;20063;-75
2022/11/13 07:37:27;;;;;;;71.88;42.03;;;;;;;8.98;87.36;102288.97;4931565;29;20051;-75
2022/11/13 07:40:24;;;;;;;64.38;42.00;;;;;;;8.99;86.56;102293.38;4948840;29;20055;-76
2022/11/13 07:43:33;;;;;;;57.17;41.25;;;;;;;7.76;84.92;102089.03;4929265;29;20054;-77
2022/11/13 07:46:01;;;;;;;49.47;39.88;;;;;;;8.25;89.08;102185.03;4886081;29;20533;-77
2022/11/13 07:48:30;;;;;;;47.38;34.30;;;;;;;7.76;87.59;102103.00;4888191;29;20130;-74
2022/11/13 07:51:01;;;;;;;48.78;37.38;;;;;;;7.21;86.13;101940.66;4918646;28;20119;-75
2022/11/13 07:53:27;;;;;;;61.30;37.47;;;;;;;8.68;85.57;102218.06;4943797;29;20058;-74
2022/11/13 07:55:53;;;;;;;58.58;39.50;;;;;;;8.46;85.99;102169.28;4929072;29;20039;-75
2022/11/13 07:58:19;;;;;;;48.72;35.72;;;;;;;8.82;83.73;102232.53;4928811;29;20031;-75
2022/11/13 08:00:46;;;;;;;47.50;37.67;;;;;;;9.05;83.57;102215.03;4945414;28;20043;-75
2022/11/13 08:03:17;;;;;;;48.10;37.05;;;;;;;8.62;83.41;102137.63;4936871;28;20106;-76
2022/11/13 08:05:43;;;;;;;46.08;36.65;;;;;;;8.69;83.67;102191.06;4929407;29;20054;-75
2022/11/13 08:08:14;;;;;;;43.80;34.20;;;;;;;9.20;83.40;102248.75;4917168;28;20137;-74
2022/11/13 08:14:11;;;;;;;38.38;33.10;;;;;;;7.64;82.62;101951.00;4902959;29;20566;-74
2022/11/13 08:17:00;;;;;;;39.35;33.60;;;;;;;9.57;83.63;102257.84;4930669;29;20047;-74
2022/11/13 08:19:42;;;;;;;44.55;34.53;;;;;;;9.65;83.08;102271.25;4948914;29;20070;-73
2022/11/13 08:22:12;;;;;;;39.90;32.15;;;;;;;9.00;83.00;102156.38;4948173;28;20081;-74
2022/11/13 08:24:46;;;;;;;45.22;34.63;;;;;;;8.11;82.46;102003.22;4938199;28;20059;-74
2022/11/13 08:27:34;;;;;;;39.72;32.50;;;;;;;9.46;82.98;102241.78;4932340;28;20491;-74
2022/11/13 08:30:03;;;;;;;38.75;28.58;;;;;;;9.46;81.83;102219.94;4935343;28;20055;-76
2022/11/13 08:32:30;;;;;;;35.60;29.00;;;;;;;9.30;81.75;102172.25;4880445;29;20068;-75
2022/11/13 08:35:01;;;;;;;40.00;29.15;;;;;;;8.34;81.83;101985.72;4867061;29;20115;-74
2022/11/13 08:37:31;;;;;;;40.55;30.48;;;;;;;8.35;81.79;101982.25;4907302;29;20048;-74
2022/11/13 08:39:58;;;;;;;40.15;31.73;;;;;;;8.21;82.45;101948.66;4907354;29;20188;-74
2022/11/13 08:42:35;;;;;;;38.30;31.25;;;;;;;8.30;82.13;101970.75;4898287;29;20060;-74
2022/11/13 08:45:12;;;;;;;36.08;30.83;;;;;;;9.60;82.63;102233.47;4889575;29;20135;-74
2022/11/13 08:48:15;;;;;;;39.75;31.95;;;;;;;10.01;82.56;102253.19;4892018;29;20074;-74
2022/11/13 08:50:47;;;;;;;40.38;29.92;;;;;;;8.33;82.33;101961.28;4864884;29;20457;-74
2022/11/13 08:53:29;;;;;;;43.42;32.10;;;;;;;8.41;82.94;101938.06;4891261;29;20056;-74
2022/11/13 08:56:10;;;;;;;38.05;30.35;;;;;;;9.66;81.46;102129.75;4897027;29;20054;-74
2022/11/13 08:58:39;;;;;;;45.58;30.33;;;;;;;9.80;84.09;102197.44;4891000;29;20230;-74
2022/11/13 09:01:38;;;;;;;40.15;30.75;;;;;;;9.69;83.25;102111.50;4920003;29;20055;-74
2022/11/13 09:04:37;;;;;;;37.42;28.92;;;;;;;9.02;81.86;101950.50;4871892;29;20099;-77
2022/11/13 09:07:26;;;;;;;40.03;29.25;;;;;;;10.55;81.27;102239.13;4922408;29;20048;-76
2022/11/13 09:10:10;;;;;;;36.65;29.10;;;;;;;9.98;81.98;102121.97;4918683;29;20060;-76
2022/11/13 09:13:03;;;;;;;51.75;30.25;;;;;;;10.83;82.11;102227.69;4926241;29;20055;-75
2022/11/13 09:15:56;;;;;;;41.22;30.88;;;;;;;9.67;81.07;101999.59;4883783;29;20052;-75
2022/11/13 09:18:34;;;;;;;39.65;29.15;;;;;;;10.22;80.64;102078.94;4921230;29;20507;-75
2022/11/13 09:21:01;;;;;;;40.25;28.77;;;;;;;10.32;80.24;102083.63;4923903;29;20131;-76
2022/11/13 09:23:27;;;;;;;43.47;30.55;;;;;;;10.94;79.85;102160.59;4957532;28;20073;-75
2022/11/13 09:25:53;;;;;;;38.75;28.58;;;;;;;11.29;80.69;102183.41;4968030;28;20105;-76
2022/11/13 09:28:19;;;;;;;45.30;30.15;;;;;;;11.42;78.49;102206.50;4966852;28;20043;-84
2022/11/13 09:30:44;;;;;;;39.67;29.45;;;;;;;10.24;78.85;102025.69;4964394;28;20415;-83
2022/11/13 09:33:14;;;;;;;41.67;29.00;;;;;;;11.13;79.56;102154.09;4969704;28;20058;-78
2022/11/13 09:35:40;;;;;;;42.95;27.45;;;;;;;10.75;78.32;102077.81;4967702;28;20510;-81
2022/11/13 09:38:11;;;;;;;41.63;27.00;;;;;;;11.66;78.40;102200.06;4967695;28;20097;-82
2022/11/13 09:41:17;;;;;;;37.97;26.98;;;;;;;11.87;77.93;102198.00;4970045;28;20078;-81
2022/11/13 09:44:02;;;;;;;39.22;29.55;;;;;;;11.72;76.99;102169.56;4969375;28;20045;-82
2022/11/13 09:46:35;;;;;;;41.58;25.17;;;;;;;12.12;76.26;102196.81;4971064;28;20474;-80
2022/11/13 09:49:10;;;;;;;41.03;28.80;;;;;;;11.79;76.20;102132.03;4969891;28;20138;-83
2022/11/13 09:51:37;;;;;;;36.47;25.55;;;;;;;11.94;76.33;102180.59;4970245;28;20083;-81
2022/11/13 09:54:11;;;;;;;29.75;21.27;;;;;;;12.12;75.99;102173.13;4970773;28;20087;-81
2022/11/13 09:56:45;;;;;;;33.25;24.02;;;;;;;11.38;75.24;102029.44;4951356;28;20054;-81
2022/11/13 09:59:26;;;;;;;35.67;23.20;;;;;;;11.91;74.61;102141.97;4952488;28;20196;-82
2022/11/13 10:02:06;;;;;;;33.45;22.52;;;;;;;12.25;75.16;102175.19;4962234;28;20058;-83
2022/11/13 10:04:47;;;;;;;31.67;21.65;;;;;;;12.51;74.47;102181.84;4969403;28;20050;-82
2022/11/13 10:07:34;;;;;;;35.20;20.50;;;;;;;12.50;74.19;102186.22;4959624;28;20045;-83
2022/11/13 10:10:03;;;;;;;36.90;22.45;;;;;;;12.45;74.10;102179.97;4962318;28;20129;-83
2022/11/13 10:12:31;;;;;;;26.52;20.83;;;;;;;12.21;74.73;102152.28;4955903;28;20070;-76
2022/11/13 10:15:01;;;;;;;24.98;21.08;;;;;;;12.19;74.85;102103.97;4960890;28;20051;-79
2022/11/13 10:17:33;;;;;;;30.08;22.13;;;;;;;12.62;74.08;102161.91;4949302;28;20055;-77
2022/11/13 10:20:03;;;;;;;30.48;21.13;;;;;;;12.10;73.52;102031.84;4967648;28;20081;-80
2022/11/13 10:22:40;;;;;;;36.30;22.85;;;;;;;13.01;73.67;102168.75;4950077;28;20596;-79
2022/11/13 10:25:16;;;;;;;29.58;19.40;;;;;;;12.39;72.96;102038.56;4960778;28;20086;-75
2022/11/13 10:27:47;;;;;;;32.67;21.75;;;;;;;13.09;72.23;102127.63;4964405;28;20086;-76
2022/11/13 10:30:16;;;;;;;25.67;19.75;;;;;;;12.62;72.87;102031.09;4965707;28;20050;-77
2022/11/13 10:32:43;;;;;;;30.17;21.58;;;;;;;13.13;71.03;102075.84;4964045;28;20051;-75
2022/11/13 10:35:27;;;;;;;32.58;21.27;;;;;;;13.20;71.77;102136.59;4968626;28;20038;-76
2022/11/13 10:38:11;;;;;;;31.52;22.17;;;;;;;12.70;70.85;102018.06;4957503;28;20462;-77
2022/11/13 10:40:39;;;;;;;38.40;20.40;;;;;;;13.57;70.48;102134.59;4941115;28;20404;-76
2022/11/13 10:43:34;;;;;;;22.83;19.17;;;;;;;13.87;68.97;102133.28;4968007;28;20034;-76
2022/11/13 10:46:02;;;;;;;34.65;20.05;;;;;;;13.90;69.71;102107.81;4955724;28;20049;-77
2022/11/13 10:48:33;;;;;;;30.73;19.85;;;;;;;12.90;69.53;102052.66;4974045;28;20058;-77
2022/11/13 10:51:19;;;;;;;25.48;18.40;;;;;;;13.82;67.78;102133.22;4970988;28;20043;-75
2022/11/13 10:53:46;;;;;;;26.17;19.80;;;;;;;13.82;68.15;102088.34;4950672;28;20140;-76
2022/11/13 10:56:45;;;;;;;26.45;18.98;;;;;;;13.98;68.30;102110.56;4968522;28;20566;-76
2022/11/13 10:59:17;;;;;;;25.83;18.77;;;;;;;13.87;66.99;102113.03;4931697;28;20046;-77
2022/11/13 11:01:44;;;;;;;21.27;15.75;;;;;;;13.83;67.28;102092.75;4949995;28;20047;-75
2022/11/13 11:04:18;;;;;;;21.65;15.63;;;;;;;13.24;65.86;101990.81;4968616;28;20562;-74
2022/11/13 11:06:45;;;;;;;21.30;15.63;;;;;;;13.29;65.75;101983.88;4966806;28;20558;-74
2022/11/13 11:09:24;;;;;;;21.38;14.90;;;;;;;14.11;67.97;102101.03;4964340;28;21365;-75
2022/11/13 11:12:23;;;;;;;25.67;18.77;;;;;;;14.15;66.05;102087.91;4954057;28;20050;-74
2022/11/13 11:15:00;;;;;;;21.70;15.13;;;;;;;13.79;67.27;102018.81;4930560;28;20105;-76
2022/11/13 11:17:52;;;;;;;17.20;13.13;;;;;;;14.17;65.23;102090.56;4966708;28;20125;-74
2022/11/13 11:20:44;;;;;;;20.55;14.77;;;;;;;13.94;65.70;102040.13;4960509;28;20042;-76
2022/11/13 11:23:17;;;;;;;23.17;16.92;;;;;;;13.49;66.70;101968.34;4960149;28;20518;-74
2022/11/13 11:25:47;;;;;;;22.90;15.98;;;;;;;13.94;65.88;102059.47;4966420;28;20035;-75
2022/11/13 11:28:26;;;;;;;21.25;15.15;;;;;;;14.00;68.08;102085.09;4964124;28;21103;-76
2022/11/13 11:30:59;;;;;;;24.00;16.40;;;;;;;14.14;67.57;102078.22;4977536;28;20119;-76
2022/11/13 11:33:35;;;;;;;23.77;18.10;;;;;;;14.20;67.72;102072.13;4964374;28;20054;-75
2022/11/13 11:36:36;;;;;;;21.83;15.82;;;;;;;14.38;65.59;102076.72;4963439;28;20055;-75
2022/11/13 11:39:25;;;;;;;28.10;15.77;;;;;;;14.35;65.91;102068.75;4961039;28;20055;-75
2022/11/13 11:42:25;;;;;;;23.80;15.98;;;;;;;14.28;66.80;102049.34;4946981;28;20169;-76
2022/11/13 11:45:08;;;;;;;19.38;14.00;;;;;;;14.19;65.62;102043.94;4966556;28;20059;-76
2022/11/13 11:47:34;;;;;;;23.33;14.35;;;;;;;13.79;67.34;101950.22;4963531;28;20062;-75
2022/11/13 11:50:01;;;;;;;16.90;12.20;;;;;;;13.49;65.93;101926.16;4965958;28;20406;-76
2022/11/13 11:52:41;;;;;;;17.25;12.40;;;;;;;14.19;65.76;102046.59;4965094;28;20041;-76
2022/11/13 11:55:36;;;;;;;17.83;12.63;;;;;;;14.12;66.29;102026.28;4966661;28;20073;-76
2022/11/13 11:58:28;;;;;;;35.05;13.63;;;;;;;14.11;66.22;102009.53;4966760;28;20051;-77
2022/11/13 12:01:03;;;;;;;25.27;15.57;;;;;;;14.10;66.88;102031.53;4935221;28;20681;-77